Time;durP1;ratioP1;P1;durP2;ratioP2;P2;SDS_P1;SDS_P2;PMS_P1;PMS_P2;Temp;Humidity;BMP_temperature;BMP_pressure;BME280_temperature;BME280_humidity;BME280_pressure;Samples;Min_cycle;Max_cycle;Signal;HPM_P1;HPM_P2
2023/06/22 00:02:18;;;;;;;9.25;5.35;;;27.40;58.00;;;;;;5092990;28;20048;-67
2023/06/22 00:04:44;;;;;;;6.45;4.75;;;27.40;58.10;;;;;;5093102;28;20122;-67
2023/06/22 00:07:10;;;;;;;9.50;6.15;;;27.40;58.00;;;;;;5090535;28;20043;-67
2023/06/22 00:09:36;;;;;;;11.43;5.68;;;27.40;57.90;;;;;;5092993;28;20032;-67
2023/06/22 00:12:03;;;;;;;10.45;7.35;;;27.30;57.90;;;;;;5092787;28;20028;-67
2023/06/22 00:14:29;;;;;;;8.82;6.72;;;27.50;57.90;;;;;;5090252;28;20059;-66
2023/06/22 00:16:56;;;;;;;10.02;6.47;;;27.20;57.90;;;;;;5107409;28;20036;-67
2023/06/22 00:19:23;;;;;;;8.30;6.63;;;27.40;58.00;;;;;;5091534;28;20036;-67
2023/06/22 00:21:52;;;;;;;13.38;7.07;;;27.40;58.20;;;;;;5092430;28;20372;-66
2023/06/22 00:24:22;;;;;;;9.40;6.18;;;27.30;58.10;;;;;;5092140;28;20502;-67
2023/06/22 00:26:48;;;;;;;9.52;6.55;;;27.40;58.40;;;;;;5091251;28;20120;-67
2023/06/22 00:29:16;;;;;;;11.43;7.38;;;27.30;58.10;;;;;;5091057;28;20031;-66
2023/06/22 00:31:42;;;;;;;8.15;6.32;;;27.30;58.20;;;;;;5098297;28;20079;-67
2023/06/22 00:34:08;;;;;;;12.00;7.28;;;27.40;58.20;;;;;;5112669;28;20483;-67
2023/06/22 00:36:35;;;;;;;11.15;7.20;;;27.40;58.30;;;;;;5112879;28;20123;-67
2023/06/22 00:39:03;;;;;;;10.95;6.65;;;27.50;58.40;;;;;;5112604;28;20421;-66
2023/06/22 00:41:30;;;;;;;11.70;6.40;;;27.40;58.40;;;;;;5111242;28;20036;-66
2023/06/22 00:43:57;;;;;;;8.32;6.88;;;27.50;58.40;;;;;;5111175;28;20055;-67
2023/06/22 00:46:24;;;;;;;7.38;5.38;;;27.40;58.40;;;;;;5111334;28;20489;-67
2023/06/22 00:48:52;;;;;;;7.68;5.90;;;27.60;58.50;;;;;;5110380;28;20049;-67
2023/06/22 00:51:24;;;;;;;8.40;6.50;;;27.40;58.40;;;;;;5112374;28;20469;-66
2023/06/22 00:53:51;;;;;;;8.32;6.72;;;27.40;58.40;;;;;;5112375;28;20032;-67
2023/06/22 00:56:19;;;;;;;10.55;6.30;;;27.30;58.40;;;;;;5111197;28;20403;-67
2023/06/22 00:58:47;;;;;;;9.25;5.93;;;27.40;58.50;;;;;;5112412;28;20053;-67
2023/06/22 01:01:14;;;;;;;9.52;6.63;;;27.30;58.60;;;;;;5112238;28;20043;-66
2023/06/22 01:03:40;;;;;;;10.90;7.22;;;27.40;58.50;;;;;;5110998;28;20119;-67
2023/06/22 01:06:18;;;;;;;8.65;6.50;;;27.30;58.60;;;;;;5110744;28;20058;-67
2023/06/22 01:09:17;;;;;;;10.88;6.40;;;27.30;58.60;;;;;;5109646;28;20487;-67
2023/06/22 01:11:49;;;;;;;9.35;6.60;;;27.20;58.60;;;;;;5112268;28;20031;-66
2023/06/22 01:14:28;;;;;;;12.23;6.00;;;27.20;58.70;;;;;;5111898;28;20117;-66
2023/06/22 01:16:57;;;;;;;6.88;6.03;;;27.30;58.70;;;;;;5110766;28;20079;-66
2023/06/22 01:19:35;;;;;;;10.95;5.88;;;27.40;58.70;;;;;;5109700;28;20581;-67
2023/06/22 01:22:05;;;;;;;9.30;6.82;;;27.20;58.80;;;;;;5112062;28;20517;-66
2023/06/22 01:24:51;;;;;;;9.27;5.95;;;27.30;58.80;;;;;;5110453;28;20028;-67
2023/06/22 01:27:23;;;;;;;10.23;6.85;;;27.20;58.80;;;;;;5111853;28;20059;-66
2023/06/22 01:30:04;;;;;;;8.55;6.10;;;27.30;58.80;;;;;;5111669;28;20038;-66
2023/06/22 01:32:37;;;;;;;8.43;6.38;;;27.30;58.80;;;;;;5109568;28;20454;-67
2023/06/22 01:35:06;;;;;;;10.55;6.65;;;27.30;58.90;;;;;;5111711;28;20047;-66
2023/06/22 01:37:34;;;;;;;9.90;6.07;;;27.30;58.90;;;;;;5111897;28;20036;-66
2023/06/22 01:40:01;;;;;;;12.93;5.95;;;27.30;58.90;;;;;;5110288;28;20476;-67
2023/06/22 01:42:28;;;;;;;9.60;6.32;;;27.30;58.80;;;;;;5103573;28;20055;-66
2023/06/22 01:44:54;;;;;;;13.55;6.00;;;27.30;58.80;;;;;;5111270;28;20126;-66
2023/06/22 01:47:22;;;;;;;10.40;5.88;;;27.30;58.80;;;;;;5110592;28;20038;-66
2023/06/22 01:49:51;;;;;;;8.73;6.55;;;27.30;58.90;;;;;;5126474;28;20071;-66
2023/06/22 01:52:18;;;;;;;8.57;6.03;;;27.30;58.90;;;;;;5111284;28;20058;-67
2023/06/22 01:54:44;;;;;;;10.38;6.22;;;27.20;58.90;;;;;;5092302;28;20056;-67
2023/06/22 01:57:12;;;;;;;10.20;7.10;;;27.30;58.90;;;;;;5111906;28;20035;-67
2023/06/22 02:00:01;;;;;;;8.80;6.25;;;27.20;59.00;;;;;;5110329;28;20027;-66
2023/06/22 02:02:38;;;;;;;15.23;7.00;;;27.20;59.00;;;;;;5111293;28;20074;-67
2023/06/22 02:05:10;;;;;;;10.48;6.60;;;27.20;59.10;;;;;;5110989;28;20031;-67
2023/06/22 02:07:47;;;;;;;7.25;6.15;;;27.20;59.10;;;;;;5112966;28;20020;-67
2023/06/22 02:10:19;;;;;;;8.73;5.97;;;27.20;59.10;;;;;;5114191;28;20043;-67
2023/06/22 02:12:46;;;;;;;8.43;6.60;;;27.20;59.20;;;;;;5114264;28;20040;-67
2023/06/22 02:15:14;;;;;;;7.75;6.15;;;27.10;59.20;;;;;;5115069;28;20577;-67
2023/06/22 02:17:44;;;;;;;10.15;6.95;;;27.10;59.20;;;;;;5114195;28;20042;-66
2023/06/22 02:20:16;;;;;;;8.10;6.47;;;27.10;59.20;;;;;;5115510;28;20039;-67
2023/06/22 02:22:42;;;;;;;7.77;5.87;;;27.20;59.30;;;;;;5112292;28;20028;-67
2023/06/22 02:25:10;;;;;;;7.43;5.85;;;27.10;59.30;;;;;;5093418;28;20077;-66
2023/06/22 02:27:40;;;;;;;8.95;6.32;;;27.10;59.30;;;;;;5093425;28;20533;-66
2023/06/22 02:30:09;;;;;;;8.80;6.72;;;27.10;59.30;;;;;;5093553;28;20047;-67
2023/06/22 02:32:35;;;;;;;8.35;6.28;;;27.00;59.40;;;;;;5095019;28;20403;-67
2023/06/22 02:35:06;;;;;;;8.70;5.80;;;27.10;59.40;;;;;;5094555;28;20067;-66
2023/06/22 02:37:32;;;;;;;9.50;6.25;;;27.10;59.50;;;;;;5112524;28;20482;-67
2023/06/22 02:39:58;;;;;;;8.27;6.05;;;27.00;59.50;;;;;;5095718;28;20135;-66
2023/06/22 02:42:24;;;;;;;10.57;6.22;;;27.10;59.60;;;;;;5112445;28;20122;-66
2023/06/22 02:44:50;;;;;;;8.07;6.00;;;27.00;59.60;;;;;;5112324;28;20051;-66
2023/06/22 02:47:16;;;;;;;10.80;6.43;;;27.10;59.60;;;;;;5112460;28;20094;-67
2023/06/22 02:49:44;;;;;;;8.23;6.38;;;27.10;59.60;;;;;;5095407;28;20031;-67
2023/06/22 02:52:11;;;;;;;9.35;6.63;;;27.20;59.50;;;;;;5095364;28;20128;-67
2023/06/22 02:54:37;;;;;;;8.25;6.18;;;27.20;59.50;;;;;;5095218;28;20114;-67
2023/06/22 02:57:04;;;;;;;8.43;6.15;;;27.10;59.50;;;;;;5094873;28;20097;-67
2023/06/22 02:59:30;;;;;;;8.45;6.00;;;27.10;59.50;;;;;;5112212;28;20035;-67
2023/06/22 03:02:02;;;;;;;10.13;5.75;;;27.10;59.50;;;;;;5095253;28;20059;-67
2023/06/22 03:04:31;;;;;;;9.95;6.22;;;27.30;59.50;;;;;;5095097;28;20036;-66
2023/06/22 03:07:00;;;;;;;8.70;6.22;;;27.30;59.50;;;;;;5095005;28;20440;-66
2023/06/22 03:09:30;;;;;;;8.95;6.10;;;27.20;59.50;;;;;;5077715;28;20550;-66
2023/06/22 03:11:57;;;;;;;8.93;6.47;;;27.20;59.50;;;;;;5094303;28;20024;-66
2023/06/22 03:14:27;;;;;;;10.35;7.13;;;27.30;59.50;;;;;;5092685;28;20093;-67
2023/06/22 03:16:53;;;;;;;8.45;5.78;;;27.30;59.50;;;;;;5094094;28;20028;-67
2023/06/22 03:19:21;;;;;;;11.63;6.50;;;27.20;59.50;;;;;;5091809;28;20024;-67
2023/06/22 03:21:48;;;;;;;8.90;6.43;;;27.30;59.40;;;;;;5091316;28;20040;-66
2023/06/22 03:24:14;;;;;;;8.57;6.13;;;27.30;59.40;;;;;;5074268;28;20083;-67
2023/06/22 03:26:40;;;;;;;7.32;5.88;;;27.40;59.40;;;;;;5074327;28;20761;-67
2023/06/22 03:29:06;;;;;;;8.43;6.45;;;27.40;59.40;;;;;;5091184;28;20064;-67
2023/06/22 03:31:34;;;;;;;11.25;6.80;;;27.40;59.40;;;;;;5075506;28;20059;-67
2023/06/22 03:34:00;;;;;;;13.27;8.23;;;27.40;59.40;;;;;;5107819;28;20085;-67
2023/06/22 03:36:26;;;;;;;15.80;7.25;;;27.40;59.30;;;;;;5111274;28;20074;-67
2023/06/22 03:38:52;;;;;;;12.30;8.13;;;27.50;59.30;;;;;;5094551;28;20043;-67
2023/06/22 03:41:18;;;;;;;9.85;6.88;;;27.40;59.30;;;;;;5077250;28;20040;-66
2023/06/22 03:43:44;;;;;;;10.80;6.68;;;27.50;59.30;;;;;;5060452;28;20056;-66
2023/06/22 03:46:10;;;;;;;10.23;7.70;;;27.50;59.30;;;;;;5076840;28;20054;-66
2023/06/22 03:48:36;;;;;;;11.90;8.02;;;27.50;59.40;;;;;;5111074;28;20040;-67
2023/06/22 03:51:03;;;;;;;9.38;7.07;;;27.60;59.30;;;;;;5076983;28;20437;-67
2023/06/22 03:53:29;;;;;;;7.90;6.00;;;27.50;59.30;;;;;;5090062;28;20383;-65
2023/06/22 03:55:56;;;;;;;4.90;4.18;;;27.50;59.30;;;;;;5113537;28;20043;-65
2023/06/22 03:58:22;;;;;;;6.00;4.28;;;27.50;59.10;;;;;;5113299;28;20040;-65
2023/06/22 04:00:50;;;;;;;7.50;4.82;;;27.50;58.20;;;;;;5113272;28;20046;-65
2023/06/22 04:03:18;;;;;;;7.85;5.90;;;27.50;57.40;;;;;;5113539;28;20031;-66
2023/06/22 04:05:44;;;;;;;7.35;6.18;;;27.50;56.70;;;;;;5111880;28;20035;-65
2023/06/22 04:08:13;;;;;;;7.32;5.65;;;27.50;56.10;;;;;;5113179;28;20019;-65
2023/06/22 04:10:39;;;;;;;11.57;6.38;;;27.40;55.60;;;;;;5113499;28;20034;-66
2023/06/22 04:13:06;;;;;;;9.55;6.53;;;27.60;55.40;;;;;;5113286;28;20031;-67
2023/06/22 04:15:33;;;;;;;10.68;6.03;;;27.60;55.30;;;;;;5113117;28;20080;-66
2023/06/22 04:17:59;;;;;;;6.93;5.65;;;27.60;57.00;;;;;;5112939;28;20041;-66
2023/06/22 04:20:27;;;;;;;6.18;5.30;;;28.20;58.90;;;;;;5112923;28;20036;-67
2023/06/22 04:22:54;;;;;;;8.32;5.93;;;28.70;57.60;;;;;;5111841;28;20024;-67
2023/06/22 04:25:20;;;;;;;8.30;5.88;;;28.90;59.50;;;;;;5113256;28;20028;-68
2023/06/22 04:27:47;;;;;;;8.48;6.25;;;28.60;55.70;;;;;;5112731;28;20063;-68
2023/06/22 04:30:15;;;;;;;9.10;6.53;;;28.40;56.10;;;;;;5112692;27;20070;-68
2023/06/22 04:32:41;;;;;;;9.35;6.95;;;28.40;55.90;;;;;;5111466;28;20502;-68
2023/06/22 04:35:07;;;;;;;8.90;6.20;;;28.20;56.20;;;;;;5112592;28;20037;-68
2023/06/22 04:37:33;;;;;;;9.88;6.00;;;28.20;56.40;;;;;;5112841;28;20448;-68
2023/06/22 04:40:00;;;;;;;10.98;6.63;;;28.10;56.50;;;;;;5112697;28;20039;-68
2023/06/22 04:42:26;;;;;;;10.82;5.78;;;28.20;56.60;;;;;;5111246;28;20024;-67
2023/06/22 04:44:53;;;;;;;7.57;6.63;;;28.00;56.70;;;;;;5112590;28;20111;-68
2023/06/22 04:47:19;;;;;;;7.00;5.18;;;28.00;56.80;;;;;;5110219;28;20037;-67
2023/06/22 04:49:45;;;;;;;7.70;5.30;;;28.10;57.10;;;;;;5112395;28;20034;-68
2023/06/22 04:52:13;;;;;;;8.35;5.93;;;28.10;57.40;;;;;;5112426;28;20038;-67
2023/06/22 04:54:47;;;;;;;7.40;5.75;;;28.00;57.60;;;;;;5112343;28;20078;-67
2023/06/22 04:57:13;;;;;;;7.28;5.40;;;28.00;57.50;;;;;;5112123;28;20068;-66
2023/06/22 04:59:41;;;;;;;7.22;5.90;;;28.00;57.60;;;;;;5112278;28;20039;-66
2023/06/22 05:02:08;;;;;;;8.50;6.88;;;28.10;56.80;;;;;;5112027;28;20035;-66
2023/06/22 05:04:35;;;;;;;12.20;7.07;;;27.90;55.50;;;;;;5109887;28;20526;-67
2023/06/22 05:07:02;;;;;;;10.80;7.07;;;28.00;55.60;;;;;;5110709;28;20486;-67
2023/06/22 05:09:29;;;;;;;12.13;7.38;;;28.00;55.30;;;;;;5111871;28;20027;-67
2023/06/22 05:11:59;;;;;;;7.95;6.45;;;28.00;58.50;;;;;;5111949;28;20070;-66
2023/06/22 05:14:25;;;;;;;11.32;7.63;;;28.10;58.60;;;;;;5111923;28;20031;-67
2023/06/22 05:16:58;;;;;;;13.45;7.95;;;28.00;56.40;;;;;;5111929;28;20463;-68
2023/06/22 05:19:31;;;;;;;11.80;7.60;;;28.20;57.60;;;;;;5112072;28;20444;-68
2023/06/22 05:21:57;;;;;;;;;;;28.10;56.70;;;;;;5111286;28;20046;-68
2023/06/22 05:24:23;;;;;;;9.65;8.52;;;28.10;56.50;;;;;;5126775;27;20367;-68
2023/06/22 05:26:49;;;;;;;13.27;8.73;;;28.20;57.90;;;;;;5111434;28;20200;-67
2023/06/22 05:29:14;;;;;;;14.55;10.10;;;28.10;56.50;;;;;;5111491;28;20047;-68
2023/06/22 05:31:41;;;;;;;13.43;10.70;;;28.10;56.80;;;;;;5111865;28;20390;-67
2023/06/22 05:34:07;;;;;;;25.60;16.67;;;28.10;58.60;;;;;;5111736;28;20038;-67
2023/06/22 05:36:33;;;;;;;11.82;9.45;;;28.10;57.00;;;;;;5111745;28;20032;-67
2023/06/22 05:38:59;;;;;;;9.75;7.70;;;28.10;56.90;;;;;;5107432;28;20043;-67
2023/06/22 05:41:25;;;;;;;13.18;8.25;;;28.10;56.20;;;;;;5110209;28;20372;-67
2023/06/22 05:43:51;;;;;;;9.98;7.97;;;28.10;56.10;;;;;;5110334;28;20059;-67
2023/06/22 05:46:17;;;;;;;10.18;7.07;;;28.00;56.00;;;;;;5111423;28;20452;-67
2023/06/22 05:48:43;;;;;;;12.73;7.30;;;28.00;56.00;;;;;;5111922;28;20125;-67
2023/06/22 05:51:09;;;;;;;11.23;7.43;;;28.00;55.80;;;;;;5111506;28;20479;-68
2023/06/22 05:53:35;;;;;;;9.98;7.40;;;28.10;56.00;;;;;;5111614;28;20035;-67
2023/06/22 05:56:01;;;;;;;10.52;7.60;;;28.30;56.40;;;;;;5111218;28;20036;-66
2023/06/22 05:58:27;;;;;;;10.23;7.13;;;28.10;56.40;;;;;;5111529;28;20071;-67
2023/06/22 06:00:53;;;;;;;10.63;7.10;;;28.20;56.90;;;;;;5111591;28;20539;-68
2023/06/22 06:03:19;;;;;;;8.07;6.70;;;28.10;56.70;;;;;;5111348;28;20499;-67
2023/06/22 06:05:45;;;;;;;10.93;7.78;;;28.10;56.90;;;;;;5111099;28;20063;-67
2023/06/22 06:08:12;;;;;;;10.82;6.90;;;28.30;57.00;;;;;;5111266;28;20032;-70
2023/06/22 06:10:38;;;;;;;10.35;7.13;;;28.20;56.80;;;;;;5109836;28;20577;-67
2023/06/22 06:13:04;;;;;;;11.52;7.38;;;28.20;56.70;;;;;;5110840;28;20043;-66
2023/06/22 06:15:31;;;;;;;11.60;7.43;;;28.20;56.80;;;;;;5111037;28;20430;-67
2023/06/22 06:17:58;;;;;;;10.27;7.68;;;28.20;57.00;;;;;;5108773;28;20048;-67
2023/06/22 06:20:25;;;;;;;9.75;7.13;;;28.10;57.10;;;;;;5111369;28;20398;-67
2023/06/22 06:22:51;;;;;;;8.63;7.28;;;28.10;57.10;;;;;;5101032;28;20036;-67
2023/06/22 06:25:19;;;;;;;11.90;7.10;;;28.20;57.10;;;;;;5095873;28;20032;-67
2023/06/22 06:27:46;;;;;;;10.10;7.80;;;28.20;57.10;;;;;;5094290;28;20044;-67
2023/06/22 06:30:14;;;;;;;9.32;6.00;;;28.30;57.10;;;;;;5103549;28;20090;-67
2023/06/22 06:32:41;;;;;;;8.57;6.47;;;28.30;57.10;;;;;;5111133;28;20141;-65
2023/06/22 06:35:09;;;;;;;9.18;6.55;;;28.20;56.40;;;;;;5110858;28;20082;-65
2023/06/22 06:37:40;;;;;;;12.95;8.90;;;28.20;56.30;;;;;;5109604;28;20036;-66
2023/06/22 06:40:10;;;;;;;11.17;6.53;;;28.40;56.90;;;;;;5110966;28;20446;-66
2023/06/22 06:42:40;;;;;;;9.48;6.65;;;28.10;56.40;;;;;;5101288;28;20027;-66
2023/06/22 06:45:10;;;;;;;10.88;6.90;;;28.00;56.40;;;;;;5090741;28;20036;-65
2023/06/22 06:47:36;;;;;;;13.63;8.60;;;28.20;56.80;;;;;;5090456;28;20032;-64
2023/06/22 06:50:04;;;;;;;12.30;7.03;;;28.20;57.10;;;;;;5090464;28;20502;-66
2023/06/22 06:52:30;;;;;;;9.05;7.22;;;28.20;56.90;;;;;;5090477;28;20050;-64
2023/06/22 06:54:56;;;;;;;12.77;6.32;;;28.00;56.60;;;;;;5093469;28;20032;-65
2023/06/22 06:57:22;;;;;;;12.00;8.57;;;28.10;56.60;;;;;;5094289;28;20106;-66
2023/06/22 06:59:49;;;;;;;11.20;6.68;;;28.20;56.60;;;;;;5104648;28;20026;-65
2023/06/22 07:02:18;;;;;;;8.20;6.90;;;28.10;56.50;;;;;;5114502;28;20106;-65
2023/06/22 07:04:44;;;;;;;8.73;6.60;;;28.20;56.60;;;;;;5114320;28;20035;-65
2023/06/22 07:07:10;;;;;;;9.93;7.60;;;28.10;56.70;;;;;;5114303;27;20465;-66
2023/06/22 07:09:36;;;;;;;8.85;6.63;;;28.30;56.80;;;;;;5095044;28;20101;-66
2023/06/22 07:12:02;;;;;;;7.53;6.28;;;28.20;56.70;;;;;;5113010;28;20113;-65
2023/06/22 07:14:28;;;;;;;10.68;7.32;;;28.20;56.90;;;;;;5095015;28;20067;-65
2023/06/22 07:16:54;;;;;;;8.38;6.43;;;28.20;57.10;;;;;;5114110;28;20062;-65
2023/06/22 07:19:28;;;;;;;7.55;5.57;;;28.20;57.00;;;;;;5114331;28;20483;-65
2023/06/22 07:21:54;;;;;;;8.73;7.18;;;28.10;57.10;;;;;;5111802;28;20036;-65
2023/06/22 07:24:24;;;;;;;7.90;6.00;;;28.10;57.10;;;;;;5114153;28;20066;-67
2023/06/22 07:26:51;;;;;;;7.57;6.72;;;28.10;57.20;;;;;;5114083;28;20031;-64
2023/06/22 07:29:17;;;;;;;9.43;6.72;;;28.20;57.20;;;;;;5112290;28;20044;-65
2023/06/22 07:31:43;;;;;;;10.05;7.38;;;28.10;57.40;;;;;;5114033;28;20039;-66
2023/06/22 07:34:09;;;;;;;7.20;6.38;;;28.30;57.50;;;;;;5113798;28;20039;-66
2023/06/22 07:36:35;;;;;;;10.55;6.55;;;28.10;57.70;;;;;;5114114;27;20046;-65
2023/06/22 07:39:03;;;;;;;7.90;6.25;;;28.10;57.90;;;;;;5114178;28;20141;-65
2023/06/22 07:41:30;;;;;;;12.63;6.90;;;28.20;58.00;;;;;;5113725;28;20491;-66
2023/06/22 07:43:56;;;;;;;8.75;6.90;;;28.10;58.10;;;;;;5113697;28;20459;-65
2023/06/22 07:46:22;;;;;;;9.43;6.60;;;28.20;58.00;;;;;;5105206;28;20051;-64
2023/06/22 07:48:49;;;;;;;9.27;6.78;;;28.20;58.00;;;;;;5090808;28;20075;-64
2023/06/22 07:51:15;;;;;;;10.18;7.03;;;28.00;57.80;;;;;;5093503;28;20024;-64
2023/06/22 07:53:42;;;;;;;9.50;7.72;;;28.10;57.60;;;;;;5093227;28;20034;-64
2023/06/22 07:56:10;;;;;;;9.50;7.72;;;28.20;57.40;;;;;;5093073;28;20480;-64
2023/06/22 07:58:36;;;;;;;15.43;7.82;;;28.20;57.20;;;;;;5093114;28;20445;-64
2023/06/22 08:01:03;;;;;;;8.40;7.40;;;28.10;56.90;;;;;;5090793;28;20044;-64
2023/06/22 08:03:29;;;;;;;10.05;7.68;;;28.10;56.70;;;;;;5093102;28;20387;-65
2023/06/22 08:05:56;;;;;;;10.43;9.02;;;28.10;56.70;;;;;;5092908;28;20039;-65
2023/06/22 08:08:22;;;;;;;9.45;7.65;;;28.20;56.70;;;;;;5090575;28;20044;-66
2023/06/22 08:10:48;;;;;;;11.52;7.18;;;28.20;57.20;;;;;;5092949;28;20394;-65
2023/06/22 08:13:14;;;;;;;10.63;8.02;;;28.20;57.50;;;;;;5092863;28;20109;-66
2023/06/22 08:15:40;;;;;;;9.65;7.38;;;28.20;57.60;;;;;;5092691;28;20043;-67
2023/06/22 08:18:06;;;;;;;10.40;7.82;;;28.10;57.60;;;;;;5092531;28;20442;-67
2023/06/22 08:20:32;;;;;;;9.05;7.78;;;28.10;57.70;;;;;;5092595;28;20044;-67
2023/06/22 08:23:05;;;;;;;9.90;8.00;;;28.10;57.60;;;;;;5092930;28;20028;-67
2023/06/22 08:25:31;;;;;;;10.02;7.53;;;28.20;57.60;;;;;;5102623;28;20039;-66
2023/06/22 08:27:57;;;;;;;8.88;7.57;;;28.00;57.70;;;;;;5112943;28;20024;-65
2023/06/22 08:30:23;;;;;;;12.07;8.57;;;28.00;58.00;;;;;;5112876;28;20112;-68
2023/06/22 08:32:49;;;;;;;11.45;8.23;;;28.10;58.10;;;;;;5130418;27;20137;-65
2023/06/22 08:35:15;;;;;;;10.13;8.57;;;28.00;57.10;;;;;;5096413;27;20134;-68
2023/06/22 08:37:41;;;;;;;10.45;8.25;;;27.90;56.70;;;;;;5130593;27;20213;-65
2023/06/22 08:40:09;;;;;;;9.68;8.10;;;27.90;56.90;;;;;;5130620;27;20023;-65
2023/06/22 08:42:40;;;;;;;10.80;7.40;;;27.90;57.20;;;;;;5130375;27;20043;-65
2023/06/22 08:45:07;;;;;;;8.55;6.93;;;27.90;58.10;;;;;;5130567;27;20043;-66
2023/06/22 08:47:33;;;;;;;8.77;7.40;;;28.00;58.90;;;;;;5129995;27;20581;-66
2023/06/22 08:49:59;;;;;;;8.57;7.25;;;27.90;58.10;;;;;;5130643;27;20110;-67
2023/06/22 08:52:25;;;;;;;10.10;8.60;;;28.00;58.50;;;;;;5130303;27;20042;-66
2023/06/22 08:54:51;;;;;;;14.60;8.30;;;28.00;58.10;;;;;;5079470;27;20118;-66
2023/06/22 08:57:17;;;;;;;12.55;9.23;;;27.90;57.50;;;;;;5130323;27;20135;-65
2023/06/22 08:59:43;;;;;;;8.52;7.28;;;27.90;57.20;;;;;;5130230;27;20062;-66
2023/06/22 09:02:09;;;;;;;10.43;7.88;;;28.00;57.80;;;;;;5130246;27;20031;-65
2023/06/22 09:04:35;;;;;;;9.40;7.68;;;28.00;57.60;;;;;;5092872;28;20127;-66
2023/06/22 09:07:02;;;;;;;9.18;7.72;;;28.10;57.70;;;;;;5112062;28;20106;-66
2023/06/22 09:09:28;;;;;;;10.15;7.57;;;28.00;57.80;;;;;;5112043;28;20038;-66
2023/06/22 09:11:54;;;;;;;11.98;8.23;;;28.00;57.80;;;;;;5112014;28;20399;-66
2023/06/22 09:14:20;;;;;;;12.48;7.22;;;28.00;57.80;;;;;;5111782;28;20040;-67
2023/06/22 09:16:46;;;;;;;10.75;9.43;;;28.00;58.50;;;;;;5110256;28;20535;-69
2023/06/22 09:19:12;;;;;;;11.48;9.70;;;28.00;57.80;;;;;;5110622;28;20039;-67
2023/06/22 09:21:38;;;;;;;18.85;13.73;;;28.10;57.90;;;;;;5111651;28;20027;-66
2023/06/22 09:24:05;;;;;;;19.92;16.25;;;28.10;57.10;;;;;;5110761;28;20073;-67
2023/06/22 09:26:31;;;;;;;14.13;10.27;;;28.40;56.70;;;;;;5111854;28;20028;-67
2023/06/22 09:28:57;;;;;;;15.25;8.95;;;28.50;55.80;;;;;;5111388;28;20112;-68
2023/06/22 09:31:26;;;;;;;11.38;9.95;;;28.40;55.60;;;;;;5110674;28;20111;-69
2023/06/22 09:33:54;;;;;;;8.65;7.72;;;28.30;55.60;;;;;;5112108;28;20054;-69
2023/06/22 09:36:21;;;;;;;13.82;8.60;;;28.40;55.80;;;;;;5112097;28;20032;-69
2023/06/22 09:38:48;;;;;;;11.27;9.68;;;28.30;55.80;;;;;;5111838;28;20024;-69
2023/06/22 09:41:14;;;;;;;13.48;9.23;;;28.40;55.80;;;;;;5109277;28;20056;-68
2023/06/22 09:43:40;;;;;;;17.38;10.27;;;28.50;56.00;;;;;;5109915;28;20043;-67
2023/06/22 09:46:09;;;;;;;12.00;7.82;;;28.40;56.00;;;;;;5108800;28;20143;-67
2023/06/22 09:48:35;;;;;;;11.07;8.68;;;28.30;56.10;;;;;;5108833;28;20044;-67
2023/06/22 09:51:01;;;;;;;14.93;8.93;;;28.50;56.10;;;;;;5109159;28;20040;-68
2023/06/22 09:53:27;;;;;;;12.45;7.80;;;28.50;56.10;;;;;;5108984;28;20050;-67
2023/06/22 09:55:53;;;;;;;12.05;8.90;;;28.50;55.90;;;;;;5108849;28;20465;-67
2023/06/22 09:58:19;;;;;;;10.75;9.05;;;28.50;55.80;;;;;;5108462;28;20090;-68
2023/06/22 10:00:45;;;;;;;14.07;8.93;;;28.40;55.80;;;;;;5091835;28;20063;-68
2023/06/22 10:03:11;;;;;;;11.10;7.50;;;28.50;55.90;;;;;;5108810;28;20051;-67
2023/06/22 10:05:37;;;;;;;11.57;8.20;;;28.50;55.80;;;;;;5108884;28;20090;-68
2023/06/22 10:08:03;;;;;;;9.95;8.18;;;28.50;56.10;;;;;;5108903;28;20039;-68
2023/06/22 10:10:29;;;;;;;12.25;8.57;;;28.30;55.90;;;;;;5108685;28;20040;-68
2023/06/22 10:12:57;;;;;;;11.43;8.63;;;28.40;55.90;;;;;;5109154;28;20142;-68
2023/06/22 10:15:23;;;;;;;10.93;7.72;;;28.50;55.80;;;;;;5108935;28;20372;-67
2023/06/22 10:17:49;;;;;;;12.45;8.45;;;28.40;55.70;;;;;;5110882;28;20429;-66
2023/06/22 10:20:18;;;;;;;13.23;7.45;;;28.40;55.50;;;;;;5111252;28;20096;-66
2023/06/22 10:22:45;;;;;;;11.63;7.57;;;28.40;57.10;;;;;;5111205;28;20035;-68
2023/06/22 10:25:12;;;;;;;11.38;8.38;;;28.60;57.50;;;;;;5111156;28;20122;-66
2023/06/22 10:27:41;;;;;;;9.10;7.95;;;28.60;58.50;;;;;;5112501;28;20059;-65
2023/06/22 10:30:14;;;;;;;20.13;9.75;;;29.00;60.60;;;;;;5099427;28;20409;-67
2023/06/22 10:32:42;;;;;;;24.35;11.15;;;29.00;65.30;;;;;;5094906;28;20359;-67
2023/06/22 10:35:13;;;;;;;15.95;11.80;;;29.20;59.80;;;;;;5114941;28;20035;-68
2023/06/22 10:37:39;;;;;;;11.45;9.55;;;29.40;60.80;;;;;;5114731;28;20047;-67
2023/06/22 10:40:07;;;;;;;10.98;8.82;;;29.20;57.40;;;;;;5114711;27;20551;-68
2023/06/22 10:42:33;;;;;;;11.70;8.07;;;29.20;57.00;;;;;;5114697;28;20115;-67
2023/06/22 10:44:59;;;;;;;12.90;8.70;;;29.10;57.10;;;;;;5115233;28;20169;-69
2023/06/22 10:47:25;;;;;;;15.00;9.55;;;29.10;56.90;;;;;;5114810;28;20035;-68
2023/06/22 10:49:51;;;;;;;11.48;9.90;;;29.10;57.20;;;;;;5114693;28;20036;-68
2023/06/22 10:52:17;;;;;;;20.30;14.82;;;29.00;57.00;;;;;;5114438;28;20039;-67
2023/06/22 10:54:43;;;;;;;12.30;10.65;;;29.00;58.20;;;;;;5114849;28;20024;-67
2023/06/22 10:57:09;;;;;;;12.85;10.40;;;29.10;57.30;;;;;;5114859;28;20035;-68
2023/06/22 10:59:35;;;;;;;10.73;7.95;;;29.00;57.90;;;;;;5114662;28;20040;-68
2023/06/22 11:02:02;;;;;;;11.23;7.68;;;29.10;58.70;;;;;;5114769;28;20051;-68
2023/06/22 11:04:28;;;;;;;11.27;8.15;;;29.20;57.10;;;;;;5113212;28;20039;-67
2023/06/22 11:06:56;;;;;;;9.93;7.93;;;29.10;56.70;;;;;;5114832;28;20565;-68
2023/06/22 11:09:22;;;;;;;12.27;8.25;;;29.00;56.60;;;;;;5112545;28;20111;-67
2023/06/22 11:11:49;;;;;;;8.77;7.30;;;28.90;56.00;;;;;;5114684;28;20458;-67
2023/06/22 11:14:15;;;;;;;10.98;7.05;;;28.90;56.00;;;;;;5114427;28;20089;-68
2023/06/22 11:16:41;;;;;;;9.52;8.35;;;29.00;56.50;;;;;;5114319;28;20518;-66
2023/06/22 11:19:07;;;;;;;10.63;8.70;;;28.90;56.90;;;;;;5113670;28;20192;-67
2023/06/22 11:21:33;;;;;;;10.25;9.15;;;28.90;56.20;;;;;;5114319;28;20503;-67
2023/06/22 11:23:59;;;;;;;10.05;8.77;;;29.10;56.30;;;;;;5114343;28;20085;-67
2023/06/22 11:26:28;;;;;;;9.30;8.38;;;29.00;56.70;;;;;;5114277;28;20028;-68
2023/06/22 11:28:55;;;;;;;11.93;9.15;;;29.20;56.70;;;;;;5114035;28;20491;-67
2023/06/22 11:31:21;;;;;;;11.10;9.32;;;29.10;56.30;;;;;;5114120;28;20031;-67
2023/06/22 11:33:47;;;;;;;9.65;7.68;;;29.10;56.40;;;;;;5113977;28;20031;-66
2023/06/22 11:36:14;;;;;;;12.25;7.55;;;29.00;55.90;;;;;;5113616;28;20369;-66
2023/06/22 11:38:41;;;;;;;9.80;6.72;;;29.00;56.10;;;;;;5113690;28;20337;-66
2023/06/22 11:41:08;;;;;;;10.98;7.47;;;29.00;56.00;;;;;;5113555;28;20436;-65
2023/06/22 11:43:34;;;;;;;8.43;7.40;;;29.10;56.00;;;;;;5108098;28;20075;-66
2023/06/22 11:46:02;;;;;;;8.35;7.05;;;29.00;55.90;;;;;;5112638;28;20118;-66
2023/06/22 11:48:28;;;;;;;7.30;6.47;;;29.00;55.90;;;;;;5113433;28;20035;-66
2023/06/22 11:50:55;;;;;;;6.93;5.97;;;28.90;55.40;;;;;;5113755;28;20035;-66
2023/06/22 11:53:22;;;;;;;7.47;6.70;;;28.90;55.60;;;;;;5111265;28;20524;-66
2023/06/22 11:55:49;;;;;;;8.80;6.60;;;28.90;55.60;;;;;;5113389;27;20498;-66
2023/06/22 11:58:14;;;;;;;7.97;6.28;;;28.90;55.40;;;;;;5112092;28;20395;-66
2023/06/22 12:00:41;;;;;;;7.20;6.22;;;29.00;56.00;;;;;;5113479;28;20028;-66
2023/06/22 12:03:09;;;;;;;7.53;6.65;;;28.90;55.50;;;;;;5113561;28;20058;-66
2023/06/22 12:05:35;;;;;;;7.65;6.75;;;28.80;55.50;;;;;;5113595;28;20519;-66
2023/06/22 12:08:01;;;;;;;7.53;6.72;;;28.80;55.60;;;;;;5113366;28;20043;-65
2023/06/22 12:10:29;;;;;;;7.07;5.90;;;28.90;55.60;;;;;;5128055;27;20075;-66
2023/06/22 12:12:57;;;;;;;8.82;6.82;;;28.80;55.60;;;;;;5113384;28;20030;-66
2023/06/22 12:15:23;;;;;;;7.93;6.65;;;28.90;55.80;;;;;;5113154;27;20118;-66
2023/06/22 12:17:49;;;;;;;7.95;6.55;;;28.80;56.00;;;;;;5113282;28;20039;-66
2023/06/22 12:20:15;;;;;;;6.90;6.13;;;28.90;56.10;;;;;;5113090;28;20045;-66
2023/06/22 12:22:41;;;;;;;8.10;6.72;;;28.80;56.20;;;;;;5113157;28;20059;-67
2023/06/22 12:25:08;;;;;;;7.22;6.20;;;28.90;56.30;;;;;;5112958;28;20027;-66
2023/06/22 12:27:37;;;;;;;7.35;6.43;;;28.70;56.40;;;;;;5111434;28;20032;-67
2023/06/22 12:30:04;;;;;;;7.85;6.35;;;28.80;56.40;;;;;;5112607;28;20031;-67
2023/06/22 12:32:30;;;;;;;7.43;6.15;;;28.90;56.40;;;;;;5113173;28;20035;-66
2023/06/22 12:34:57;;;;;;;9.88;6.57;;;28.70;56.50;;;;;;5093344;28;20024;-66
2023/06/22 12:37:23;;;;;;;7.20;6.18;;;28.90;56.50;;;;;;5092414;28;20043;-67
2023/06/22 12:39:49;;;;;;;8.15;6.07;;;28.70;56.60;;;;;;5092134;28;20032;-67
2023/06/22 12:42:16;;;;;;;6.72;6.03;;;28.90;56.80;;;;;;5092142;28;20609;-67
2023/06/22 12:44:43;;;;;;;6.97;6.28;;;28.70;56.90;;;;;;5092029;28;20052;-66